Terminal Aerodrome Forecast
Issued by NWS

Home | Current Version | Previous Version | Text Only | Print | Product List | Glossary On
Versions: 1 2 3 4 5 6 7 8 9 10 11 12 13 14 15 16 17 18 19 20 21 22 23 24 25 26 27 28 29 30 31 32 33 34 35 36 37 38 39 40 41 42 43 44 45 46 47 48 49
000
FTAK31 PAFA 271821 AAA
TAFAQT
TAF AMD
PAQT 271821Z 2718/2818 25020KT 6SM -SN BLSN SCT020 OVC035
      TEMPO 2718/2721 2SM -SN BLSN BKN020 OVC035
     FM280000 23012KT 6SM -SHSN BR BKN015 OVC045
     FM280600 18012KT P6SM BKN025 BKN050
     FM281200 20012KT P6SM SCT025 BKN040=

USA.gov is the U.S. government's official web portal to all federal, state and local government web resources and services.